• Join FlightAware (Why Join?)
  • Login
  • US Flag GB Flag 
04:03 EDT


 

Airport Tracker/Info


-or-


 

Live Flight TrackerFlight Track Log ✈ N798SR ✈ 13-Nov-2013 ✈ KCDK - KAPF

Flight Track Log - Related Links

Times and Time Zones

All times are in EST time to prevent confusion due to time zone crossing. See the N798SR flight status page for this flight to view local times or setup timezone preferences in your user account.

Time Position Orientation Groundspeed Altitude Reporting Facility
EST Latitude Longitude Course Direction KTS MPH feet Rate Location/Type
13:47 28.9889 -82.8261 163° South 151 174 4,000  Level Jacksonville Center
13:48 28.9347 -82.8072 163° South 162 186 4,800 660 Climbing Jacksonville Center
13:49 28.9011 -82.7953 163° South 166 191 5,400 360 Climbing Jacksonville Center
13:50 28.8594 -82.7836 166° South 157 181 5,600 60 Climbing Jacksonville Center
13:52 28.7500 -82.7667 172° South 182 209 5,700  Climbing Tampa TRACON
13:54 28.6926 -82.7858 196° South  Level FlightAware Approximate
14:01 28.4674 -82.6942 159° South  Level Estimated
14:02 28.4350 -82.6817 161° South  Level FlightAware Approximate
14:03 28.4027 -82.6692 161° South  Level FlightAware Approximate
14:04 28.3703 -82.6567 161° South  Level FlightAware Approximate
14:05 28.3380 -82.6442 161° South  Level FlightAware Approximate
14:06 28.3056 -82.6317 161° South  Level FlightAware Approximate
14:07 28.2733 -82.6193 161° South  Level FlightAware Approximate
14:08 28.2409 -82.6068 161° South  Level FlightAware Approximate
14:09 28.2086 -82.5943 161° South  Level FlightAware Approximate
14:10 28.1762 -82.5819 161° South  Level FlightAware Approximate
14:11 28.1439 -82.5695 161° South  Level FlightAware Approximate
14:12 28.1115 -82.5570 161° South  Level FlightAware Approximate
14:13 28.0791 -82.5446 161° South  Level FlightAware Approximate
14:14 28.0468 -82.5322 161° South  Level FlightAware Approximate
14:15 28.0144 -82.5198 161° South  Level FlightAware Approximate
14:16 27.9820 -82.5074 161° South  Level FlightAware Approximate
14:17 27.9497 -82.4950 161° South  Level FlightAware Approximate
14:18 27.9173 -82.4826 161° South  Level FlightAware Approximate
14:19 27.8850 -82.4702 161° South  Level FlightAware Approximate
14:20 27.8526 -82.4578 161° South  Level FlightAware Approximate
14:20 27.4167 -82.6833 161° South 174 200 5,600  Level Tampa TRACON
14:21 27.8202 -82.4454 161° South  Level FlightAware Approximate
14:21 27.3833 -82.6500 138° Southeast 171 197 5,600  Level Tampa TRACON
14:22 27.7878 -82.4331 161° South  Level FlightAware Approximate
14:22 27.3333 -82.6167 149° Southeast 169 194 5,600  Level Tampa TRACON
14:23 27.7555 -82.4207 161° South  Level FlightAware Approximate
14:23 27.3000 -82.6000 156° South 168 193 5,600  Level Tampa TRACON
14:24 27.7231 -82.4084 161° South  Level FlightAware Approximate
14:24 27.2667 -82.5667 138° Southeast 169 194 5,600  Level Tampa TRACON
14:25 27.6907 -82.3960 161° South  Level FlightAware Approximate
14:25 27.2167 -82.5333 149° Southeast 168 193 5,600  Level Tampa TRACON
14:26 27.1833 -82.5167 156° South 167 192 5,600 -60 Level Tampa TRACON
14:27 27.1500 -82.4833 138° Southeast 169 194 5,500 -300 Descending Tampa TRACON
14:28 27.1000 -82.4500 149° Southeast 180 207 5,000 -540 Descending Tampa TRACON
14:29 27.0667 -82.4167 138° Southeast 177 204 4,500 -540 Descending Tampa TRACON
14:30 27.0167 -82.4000 163° South 172 198 3,900 -600 Descending Tampa TRACON
14:32 27.0167 -82.3288 90° East  Level FlightAware Approximate
14:39 26.8749 -82.0677 161° South  Level FlightAware Approximate
14:40 26.8381 -82.0538 161° South  Level FlightAware Approximate
14:41 26.8012 -82.0400 162° South  Level FlightAware Approximate
14:42 26.7647 -82.0253 159° South  Level FlightAware Approximate
14:43 26.7284 -82.0098 159° South  Level FlightAware Approximate
14:44 26.6922 -81.9942 159° South  Level FlightAware Approximate
14:45 26.6559 -81.9787 159° South  Level FlightAware Approximate
14:46 26.6196 -81.9631 159° South  Level FlightAware Approximate
14:47 26.5833 -81.9476 159° South  Level FlightAware Approximate
14:48 26.5470 -81.9323 163° South  Level FlightAware Approximate
14:49 26.5098 -81.9199 163° South  Level FlightAware Approximate
14:50 26.4730 -81.9059 160° South  Level FlightAware Approximate
14:51 26.4364 -81.8912 160° South  Level FlightAware Approximate
14:52 26.4000 -81.8764 160° South  Level FlightAware Approximate
14:53 26.3636 -81.8612 160° South  Level FlightAware Approximate
14:54 26.3272 -81.8460 160° South  Level FlightAware Approximate
14:55 26.2908 -81.8308 160° South  Level FlightAware Approximate
14:56 26.2544 -81.8157 160° South  Level FlightAware Approximate
14:57 26.2180 -81.8006 160° South  Level FlightAware Approximate
14:58 26.1826 -81.7829 156° South  Level FlightAware Approximate
14:59 26.1500 -81.7667 156° South  Level FlightAware Approximate
15:00 26.1524 -81.7756 156° South  Level Estimated
15:01 26.1524 -81.7756 156° South  Level Estimated
15:02 26.1524 -81.7756 156° South  Level Estimated
15:03 26.1524 -81.7756 156° South  Level Estimated
15:04 26.1524 -81.7756 156° South  Level Estimated
15:05 26.1524 -81.7756 156° South  Level Estimated
15:06 26.1524 -81.7756 156° South  Level Estimated
15:07 26.1524 -81.7756 156° South  Level Estimated
15:08 26.1524 -81.7756 156° South  Level Estimated
15:09 26.1524 -81.7756 156° South  Level Estimated
15:10 26.1524 -81.7756 156° South  Level Estimated
15:11 26.1524 -81.7756 156° South  Level Estimated
15:12 26.1524 -81.7756 156° South  Level Estimated
15:13 26.1524 -81.7756 156° South  Level Estimated
15:14 26.1524 -81.7756 156° South  Level Estimated
15:15 26.1524 -81.7756 156° South  Level Estimated
15:16 26.1524 -81.7756 156° South  Level Estimated
15:17 26.1524 -81.7756 156° South  Level Estimated
15:18 26.1524 -81.7756 156° South  Level Estimated